Van Nuys Airport
KVNY : now visible

Airfield :











YOU CAN JOIN US ON...

 
LOGIN :

Register | Disclaimer

   EN    FR    IT 

 









Legend :    VFR   Marginal VFR   IFR   Intensive IFR   Very Intensive IFR
Visi :
Ceiling :
>= 8 km
>= 3000ft
5 to 8 km
1000 to 3000 ft
1500m to 5 km
500 to 1000 ft
800 to 1500m
200 to 500 ft
< 800m
< 200 ft
Symbols :   Thunderstorms  Fog  Heavy snow  Heavy precipitations  Wind > 20 kt






- Airport Elevation : 802 ft


KVNY - Van Nuys

CURRENT METAR :
  • 090051Z 27004KT 10SM BKN036 15/10 A2998 RMK AO2 SLP147 T01500100

EXPIRED METARs :
  • 082351Z 30005KT 10SM SCT029 BKN037 16/10 A2997 RMK AO2 SLP144 60013 T01610100 10167 20144 55006
  • 082251Z COR 22006KT 10SM SCT027 17/10 A2997 RMK AO2 SLP142 T01670100

TAF KVNY
Valid from the 09 at 00:00 until the 10 at 00:00 UTC


082359Z 0900/0924 29006KT P6SM -SHRA SCT025 BKN040
TEMPO 0900/0903 3SM RA BR BKN017 OVC035
FM090300 VRB03KT 5SM BR BKN012
FM090700 VRB03KT 2SM BR VCFG BKN007
FM091100 VRB03KT 1SM BR VCFG OVC004
FM091600 35006KT 6SM BR BKN009
FM091900 01008KT P6SM SCT017 BKN035



MET'MAP, your aeronautical weather chart ! - Copyright ORBIFLY December 2007 - Disclaimer

ORBIFLY MET'MAP TEAM :

Programming & Development : Alexandra Zaïnal
Concept & original design : Baudouin d'Aumeries
Assistance for programming : Marc-Olivier Méhu
Technical & hardware support : Manuel Goepfert

Contact : metmap@orbifly.com




SOURCES & CREDITS :

   NOAA       Earth
Advisory